Time;durP1;ratioP1;P1;durP2;ratioP2;P2;SDS_P1;SDS_P2;PMS_P1;PMS_P2;Temp;Humidity;BMP_temperature;BMP_pressure;BME280_temperature;BME280_humidity;BME280_pressure;Samples;Min_cycle;Max_cycle;Signal;HPM_P1;HPM_P2
2023/08/14 00:01:46;;;;;;;28.13;27.00;;;22.80;99.90;;;;;;5062249;28;20641;-51
2023/08/14 00:04:13;;;;;;;28.30;27.00;;;22.80;99.90;;;;;;5060678;28;20514;-49
2023/08/14 00:06:39;;;;;;;26.53;25.43;;;22.80;99.90;;;;;;5061327;28;20491;-49
2023/08/14 00:09:07;;;;;;;26.13;25.13;;;22.80;99.90;;;;;;5064093;28;20467;-50
2023/08/14 00:11:35;;;;;;;28.47;27.10;;;22.80;99.90;;;;;;5063674;28;20467;-50
2023/08/14 00:14:02;;;;;;;31.07;29.47;;;22.70;99.90;;;;;;5060054;28;20468;-52
2023/08/14 00:16:29;;;;;;;27.40;26.30;;;22.70;99.90;;;;;;5060546;28;20947;-51
2023/08/14 00:18:56;;;;;;;29.97;28.57;;;22.70;99.90;;;;;;5063170;28;20954;-50
2023/08/14 00:21:23;;;;;;;28.13;26.77;;;22.70;99.90;;;;;;5063662;28;20535;-47
2023/08/14 00:23:51;;;;;;;30.93;29.43;;;22.70;99.90;;;;;;5061555;28;20811;-54
2023/08/14 00:26:17;;;;;;;29.63;28.40;;;22.70;99.90;;;;;;5060303;28;20452;-48
2023/08/14 00:28:46;;;;;;;28.10;26.80;;;22.70;99.90;;;;;;5061421;28;20469;-50
2023/08/14 00:31:13;;;;;;;29.87;28.50;;;22.70;99.90;;;;;;5060803;28;20902;-50
2023/08/14 00:33:39;;;;;;;30.13;28.83;;;22.60;99.90;;;;;;5060660;28;20439;-48
2023/08/14 00:36:06;;;;;;;27.87;26.53;;;22.60;99.90;;;;;;5063477;28;20467;-51
2023/08/14 00:38:33;;;;;;;30.07;28.70;;;22.60;99.90;;;;;;5063531;28;20481;-50
2023/08/14 00:41:01;;;;;;;30.57;28.73;;;22.60;99.90;;;;;;5058800;28;20811;-50
2023/08/14 00:43:28;;;;;;;29.17;28.07;;;22.60;99.90;;;;;;5063294;28;20557;-51
2023/08/14 00:45:57;;;;;;;28.43;27.33;;;22.60;99.90;;;;;;5060811;28;20443;-51
2023/08/14 00:48:24;;;;;;;29.10;27.80;;;22.50;99.90;;;;;;5059973;28;20506;-48
2023/08/14 00:50:52;;;;;;;27.57;26.57;;;22.50;99.90;;;;;;5061573;28;20500;-49
2023/08/14 00:53:20;;;;;;;29.20;27.70;;;22.50;99.90;;;;;;5063136;28;20882;-48
2023/08/14 00:55:47;;;;;;;29.10;27.87;;;22.50;99.90;;;;;;5061825;28;20470;-54
2023/08/14 00:58:14;;;;;;;34.73;32.97;;;22.50;99.90;;;;;;5059694;28;20464;-53
2023/08/14 01:00:44;;;;;;;28.47;27.23;;;22.50;99.90;;;;;;5059860;28;20491;-49
2023/08/14 01:03:12;;;;;;;30.07;28.77;;;22.50;99.90;;;;;;5062821;28;20486;-50
2023/08/14 01:05:39;;;;;;;29.40;28.00;;;22.40;99.90;;;;;;5062865;28;21483;-50
2023/08/14 01:08:06;;;;;;;28.00;26.77;;;22.40;99.90;;;;;;5059587;28;20476;-51
2023/08/14 01:10:45;;;;;;;29.67;27.73;;;22.40;99.90;;;;;;5059245;28;20613;-52
2023/08/14 01:13:19;;;;;;;29.27;28.17;;;22.40;99.90;;;;;;5059372;28;20515;-50
2023/08/14 01:15:50;;;;;;;29.80;28.53;;;22.40;99.90;;;;;;5060637;28;20476;-50
2023/08/14 01:18:20;;;;;;;28.87;27.80;;;22.40;99.90;;;;;;5050226;28;20527;-50
2023/08/14 01:20:59;;;;;;;31.40;29.80;;;22.30;99.90;;;;;;5060541;28;20500;-51
2023/08/14 01:23:33;;;;;;;29.47;28.10;;;22.30;99.90;;;;;;5062538;28;20463;-48
2023/08/14 01:26:02;;;;;;;30.27;28.87;;;22.30;99.90;;;;;;5059880;28;20468;-51
2023/08/14 01:28:30;;;;;;;30.63;29.20;;;22.30;99.90;;;;;;5058732;28;20509;-50
2023/08/14 01:30:57;;;;;;;28.03;26.87;;;22.30;99.90;;;;;;5060152;28;20491;-47
2023/08/14 01:33:24;;;;;;;29.63;27.90;;;22.30;99.90;;;;;;5059142;28;20832;-48
2023/08/14 01:35:54;;;;;;;32.00;30.67;;;22.30;99.90;;;;;;5060819;28;20479;-49
2023/08/14 01:38:27;;;;;;;30.23;29.00;;;22.20;99.90;;;;;;5062640;28;20868;-50
2023/08/14 01:40:59;;;;;;;29.40;28.20;;;22.20;99.90;;;;;;5060534;28;20914;-47
2023/08/14 01:43:30;;;;;;;28.00;26.90;;;22.20;99.90;;;;;;5059068;28;20479;-51
2023/08/14 01:45:58;;;;;;;29.50;28.07;;;22.20;99.90;;;;;;5061554;28;20488;-50
2023/08/14 01:48:25;;;;;;;28.50;27.50;;;22.10;99.90;;;;;;5062712;28;20467;-49
2023/08/14 01:50:54;;;;;;;26.90;25.80;;;22.20;99.90;;;;;;5060612;28;20491;-50
2023/08/14 01:53:21;;;;;;;26.50;25.50;;;22.10;99.90;;;;;;5059050;28;20486;-52
2023/08/14 01:55:48;;;;;;;27.90;26.60;;;22.10;99.90;;;;;;5060124;28;20488;-50
2023/08/14 01:58:15;;;;;;;28.30;26.90;;;22.10;99.90;;;;;;5062408;28;20889;-50
2023/08/14 02:00:43;;;;;;;28.53;27.07;;;22.10;99.90;;;;;;5062007;28;20728;-51
2023/08/14 02:03:10;;;;;;;29.17;27.70;;;22.10;99.90;;;;;;5058803;28;20482;-49
2023/08/14 02:05:37;;;;;;;28.40;27.40;;;22.10;99.90;;;;;;5058790;28;20579;-52
2023/08/14 02:08:05;;;;;;;28.30;27.20;;;22.10;99.90;;;;;;5062255;28;21110;-48
2023/08/14 02:10:32;;;;;;;28.60;27.40;;;22.00;99.90;;;;;;5062418;28;20894;-51
2023/08/14 02:12:59;;;;;;;27.93;26.80;;;22.00;99.90;;;;;;5059698;28;20489;-50
2023/08/14 02:15:26;;;;;;;30.70;29.17;;;22.00;99.90;;;;;;5058776;28;20491;-50
2023/08/14 02:17:54;;;;;;;28.57;27.47;;;22.00;99.90;;;;;;5060615;28;20479;-49
2023/08/14 02:20:21;;;;;;;28.30;26.87;;;22.00;99.90;;;;;;5062196;28;20502;-50
2023/08/14 02:22:48;;;;;;;29.80;28.30;;;22.00;99.90;;;;;;5061168;28;20475;-51
2023/08/14 02:25:15;;;;;;;28.30;27.10;;;22.00;99.90;;;;;;5058856;28;20587;-50
2023/08/14 02:27:42;;;;;;;29.83;28.50;;;22.00;99.90;;;;;;5058334;28;20886;-49
2023/08/14 02:30:09;;;;;;;29.00;27.70;;;21.90;99.90;;;;;;5062698;28;20890;-53
2023/08/14 02:32:36;;;;;;;28.43;27.33;;;21.90;99.90;;;;;;5065912;28;20970;-51
2023/08/14 02:35:04;;;;;;;28.63;27.37;;;21.90;99.90;;;;;;5063028;28;20512;-52
2023/08/14 02:37:31;;;;;;;31.50;29.90;;;21.90;99.90;;;;;;5062078;28;20460;-53
2023/08/14 02:39:58;;;;;;;29.37;28.27;;;21.90;99.90;;;;;;5062277;28;20470;-52
2023/08/14 02:42:25;;;;;;;29.80;28.60;;;21.80;99.90;;;;;;5062059;28;20982;-49
2023/08/14 02:44:52;;;;;;;30.43;29.23;;;21.80;99.90;;;;;;5063272;28;20895;-52
2023/08/14 02:47:19;;;;;;;29.80;28.70;;;21.80;99.90;;;;;;5065672;28;20474;-52
2023/08/14 02:49:46;;;;;;;29.40;28.20;;;21.80;99.90;;;;;;5064801;28;20465;-50
2023/08/14 02:52:14;;;;;;;28.57;27.47;;;21.80;99.90;;;;;;5061919;28;20464;-53
2023/08/14 02:54:41;;;;;;;29.73;28.37;;;21.80;99.90;;;;;;5061947;28;20891;-51
2023/08/14 02:57:07;;;;;;;28.23;26.73;;;21.80;99.90;;;;;;5053890;28;20487;-49
2023/08/14 02:59:35;;;;;;;29.23;28.13;;;21.80;99.90;;;;;;5062252;28;20476;-52
2023/08/14 03:02:02;;;;;;;28.27;27.07;;;21.80;99.90;;;;;;5064428;28;20594;-49
2023/08/14 03:04:30;;;;;;;30.70;29.40;;;21.70;99.90;;;;;;5062760;28;20512;-50
2023/08/14 03:06:57;;;;;;;29.00;27.90;;;21.70;99.90;;;;;;5062990;28;20950;-49
2023/08/14 03:09:25;;;;;;;29.47;28.17;;;21.70;99.90;;;;;;5061727;28;20476;-49
2023/08/14 03:11:52;;;;;;;29.83;28.20;;;21.70;99.90;;;;;;5062726;28;20464;-50
2023/08/14 03:14:19;;;;;;;28.97;27.33;;;21.70;99.90;;;;;;5062653;28;20480;-50
2023/08/14 03:16:46;;;;;;;29.20;28.00;;;21.70;99.90;;;;;;5062021;28;20468;-50
2023/08/14 03:19:12;;;;;;;29.70;28.37;;;21.70;99.90;;;;;;5065194;28;20478;-50
2023/08/14 03:21:39;;;;;;;30.53;29.33;;;21.70;99.90;;;;;;5064659;28;20490;-50
2023/08/14 03:24:06;;;;;;;28.87;27.70;;;21.60;99.90;;;;;;5061409;28;20257;-50
2023/08/14 03:26:34;;;;;;;28.73;26.80;;;21.60;99.90;;;;;;5061281;28;20514;-50
2023/08/14 03:29:01;;;;;;;27.97;26.83;;;21.60;99.90;;;;;;5063962;28;20478;-51
2023/08/14 03:31:31;;;;;;;29.37;28.03;;;21.60;99.90;;;;;;5064411;28;20495;-50
2023/08/14 03:33:58;;;;;;;28.33;27.07;;;21.60;99.90;;;;;;5062323;28;20451;-51
2023/08/14 03:36:25;;;;;;;27.20;26.10;;;21.60;99.90;;;;;;5061213;28;20440;-52
2023/08/14 03:38:52;;;;;;;28.30;27.10;;;21.60;99.90;;;;;;5062500;28;20887;-50
2023/08/14 03:41:19;;;;;;;28.70;27.40;;;21.60;99.90;;;;;;5064013;28;20502;-49
2023/08/14 03:43:47;;;;;;;28.50;27.13;;;21.60;99.90;;;;;;5063885;28;20934;-51
2023/08/14 03:46:14;;;;;;;27.33;26.20;;;21.60;99.90;;;;;;5061098;28;20538;-49
2023/08/14 03:48:41;;;;;;;27.43;26.33;;;21.60;99.90;;;;;;5061063;28;20539;-51
2023/08/14 03:51:09;;;;;;;28.53;27.33;;;21.60;99.90;;;;;;5063681;28;20503;-53
2023/08/14 03:53:36;;;;;;;28.30;26.90;;;21.50;99.90;;;;;;5064398;28;20526;-50
2023/08/14 03:56:03;;;;;;;27.73;26.53;;;21.50;99.90;;;;;;5061654;28;20467;-50
2023/08/14 03:58:30;;;;;;;28.90;27.60;;;21.50;99.90;;;;;;5060833;28;20448;-51
2023/08/14 04:00:58;;;;;;;28.90;27.50;;;21.50;99.90;;;;;;5062213;28;20500;-50
2023/08/14 04:03:25;;;;;;;29.57;28.27;;;21.50;99.90;;;;;;5063925;28;20471;-54
2023/08/14 04:05:56;;;;;;;29.03;27.83;;;21.50;99.90;;;;;;5063106;28;20884;-52
2023/08/14 04:08:23;;;;;;;30.97;29.57;;;21.50;99.90;;;;;;5060689;28;20486;-49
2023/08/14 04:10:55;;;;;;;31.90;30.70;;;21.50;99.90;;;;;;5061080;28;20567;-51
2023/08/14 04:13:22;;;;;;;30.93;29.73;;;21.50;99.90;;;;;;5064037;28;20493;-52
2023/08/14 04:15:49;;;;;;;31.60;29.80;;;21.50;99.90;;;;;;5063332;28;20478;-55
2023/08/14 04:18:17;;;;;;;30.60;29.40;;;21.50;99.90;;;;;;5060523;28;20875;-50
2023/08/14 04:20:44;;;;;;;32.67;31.37;;;21.40;99.90;;;;;;5060034;28;20495;-54
2023/08/14 04:23:11;;;;;;;32.03;30.73;;;21.40;99.90;;;;;;5060176;28;20476;-50
2023/08/14 04:25:38;;;;;;;31.83;30.63;;;21.40;99.90;;;;;;5060117;28;20487;-54
2023/08/14 04:28:07;;;;;;;33.40;32.00;;;21.40;99.90;;;;;;5062883;28;20475;-49
2023/08/14 04:30:33;;;;;;;32.47;31.17;;;21.40;99.90;;;;;;5063579;28;20525;-51
2023/08/14 04:33:00;;;;;;;30.97;29.60;;;21.40;99.90;;;;;;5062318;28;20483;-50
2023/08/14 04:35:29;;;;;;;30.87;29.47;;;21.40;99.90;;;;;;5063480;28;20471;-47
2023/08/14 04:37:55;;;;;;;31.17;29.80;;;21.40;99.90;;;;;;5062035;28;20959;-51
2023/08/14 04:40:22;;;;;;;31.47;29.57;;;21.40;99.90;;;;;;5059985;28;20498;-51
2023/08/14 04:42:49;;;;;;;32.77;31.10;;;21.40;99.90;;;;;;5062235;28;20485;-46
2023/08/14 04:45:16;;;;;;;33.10;31.50;;;21.50;99.90;;;;;;5060113;28;20559;-48
2023/08/14 04:47:43;;;;;;;32.37;31.07;;;21.50;99.90;;;;;;5059776;28;20483;-46
2023/08/14 04:50:10;;;;;;;33.53;31.50;;;21.50;99.90;;;;;;5062824;28;20496;-46
2023/08/14 04:52:38;;;;;;;33.97;32.27;;;21.60;99.90;;;;;;5062680;28;20467;-47
2023/08/14 04:55:07;;;;;;;34.57;32.50;;;21.60;99.90;;;;;;5060466;28;20435;-50
2023/08/14 04:57:34;;;;;;;32.67;31.17;;;21.60;99.90;;;;;;5059724;28;20475;-46
2023/08/14 05:00:01;;;;;;;31.63;30.20;;;21.60;99.90;;;;;;5061454;28;20472;-46
2023/08/14 05:02:29;;;;;;;30.90;29.37;;;21.70;99.90;;;;;;5062630;28;20447;-47
2023/08/14 05:04:56;;;;;;;31.03;29.73;;;21.70;99.90;;;;;;5061858;28;20533;-47
2023/08/14 05:07:23;;;;;;;33.53;31.70;;;21.70;99.90;;;;;;5059582;28;20538;-47
2023/08/14 05:09:51;;;;;;;32.00;30.60;;;21.80;99.90;;;;;;5059398;28;20974;-49
2023/08/14 05:12:19;;;;;;;30.63;29.20;;;21.80;99.90;;;;;;5063105;28;20447;-45
2023/08/14 05:14:46;;;;;;;33.70;32.20;;;21.80;99.90;;;;;;5062962;28;20876;-47
2023/08/14 05:17:13;;;;;;;32.20;30.90;;;21.80;99.90;;;;;;5059518;28;20475;-48
2023/08/14 05:19:40;;;;;;;34.67;33.17;;;21.80;99.90;;;;;;5059340;28;20476;-45
2023/08/14 05:22:06;;;;;;;32.43;31.03;;;21.90;99.90;;;;;;5061441;28;20506;-45
2023/08/14 05:24:33;;;;;;;32.90;31.40;;;21.90;99.90;;;;;;5062861;28;20504;-45
2023/08/14 05:27:02;;;;;;;33.70;32.30;;;21.90;99.90;;;;;;5061143;28;20557;-45
2023/08/14 05:29:28;;;;;;;32.53;31.03;;;21.90;99.90;;;;;;5059376;28;20478;-45
2023/08/14 05:31:55;;;;;;;32.70;31.13;;;21.90;99.90;;;;;;5059805;28;20490;-46
2023/08/14 05:34:22;;;;;;;32.93;31.43;;;22.00;99.90;;;;;;5062817;28;20475;-45
2023/08/14 05:36:49;;;;;;;32.40;31.03;;;22.00;99.90;;;;;;5062716;28;20479;-48
2023/08/14 05:39:18;;;;;;;32.83;31.43;;;22.00;99.90;;;;;;5051099;28;20538;-45
2023/08/14 05:41:45;;;;;;;32.67;31.37;;;22.00;99.90;;;;;;5059045;28;20499;-45
2023/08/14 05:44:13;;;;;;;32.57;30.90;;;22.00;99.90;;;;;;5062161;28;20835;-45
2023/08/14 05:46:43;;;;;;;33.03;31.63;;;22.00;99.90;;;;;;5062523;28;20510;-48
2023/08/14 05:49:10;;;;;;;33.13;31.83;;;22.00;99.90;;;;;;5059865;28;20482;-46
2023/08/14 05:51:36;;;;;;;34.50;33.00;;;22.00;99.90;;;;;;5059114;28;20464;-45
2023/08/14 05:54:04;;;;;;;32.30;30.93;;;22.00;99.90;;;;;;5060963;28;20963;-46
2023/08/14 05:56:31;;;;;;;33.27;31.87;;;22.10;99.90;;;;;;5062619;28;20463;-45
2023/08/14 05:58:57;;;;;;;35.83;34.33;;;22.10;99.90;;;;;;5061510;28;20490;-46
2023/08/14 06:01:26;;;;;;;32.60;31.20;;;22.10;99.90;;;;;;5058976;28;20491;-45
2023/08/14 06:03:54;;;;;;;34.70;33.40;;;22.10;99.90;;;;;;5059340;28;20472;-47
2023/08/14 06:06:21;;;;;;;35.80;34.40;;;22.10;99.90;;;;;;5066425;28;20566;-46
2023/08/14 06:08:48;;;;;;;35.10;33.60;;;22.10;99.90;;;;;;5066361;28;20469;-44
2023/08/14 06:11:15;;;;;;;33.27;32.03;;;22.10;99.90;;;;;;5062463;28;20496;-47
2023/08/14 06:13:42;;;;;;;34.67;33.30;;;22.10;99.90;;;;;;5062772;28;20963;-45
2023/08/14 06:16:09;;;;;;;34.30;32.87;;;22.20;99.90;;;;;;5065069;28;20467;-45
2023/08/14 06:18:37;;;;;;;36.20;34.50;;;22.20;99.90;;;;;;5066115;28;20478;-45
2023/08/14 06:21:04;;;;;;;35.77;34.27;;;22.20;99.90;;;;;;5064304;28;20547;-46
2023/08/14 06:23:31;;;;;;;34.87;33.47;;;22.20;99.90;;;;;;5062401;28;20471;-46
2023/08/14 06:25:58;;;;;;;35.03;33.63;;;22.20;99.90;;;;;;5063161;28;21018;-47
2023/08/14 06:28:25;;;;;;;33.60;32.20;;;22.20;99.90;;;;;;5065917;28;20479;-46
2023/08/14 06:30:52;;;;;;;34.20;32.80;;;22.20;99.90;;;;;;5066016;28;21008;-45
2023/08/14 06:33:18;;;;;;;33.77;32.37;;;22.20;99.90;;;;;;5054337;28;20450;-45
2023/08/14 06:35:47;;;;;;;34.27;32.80;;;22.30;99.90;;;;;;5062453;28;20437;-45
2023/08/14 06:38:14;;;;;;;33.73;32.33;;;22.30;99.90;;;;;;5065373;28;20432;-46
2023/08/14 06:40:40;;;;;;;33.93;32.47;;;22.30;99.90;;;;;;5065597;28;20465;-46
2023/08/14 06:43:07;;;;;;;34.73;33.33;;;22.30;99.90;;;;;;5063654;28;20467;-46
2023/08/14 06:45:34;;;;;;;32.43;30.97;;;22.30;99.90;;;;;;5062193;28;20851;-50
2023/08/14 06:48:01;;;;;;;33.47;32.07;;;22.30;99.90;;;;;;5063305;28;20475;-47
2023/08/14 06:50:28;;;;;;;34.20;32.80;;;22.30;99.90;;;;;;5065520;28;20462;-45
2023/08/14 06:52:56;;;;;;;33.60;32.20;;;22.30;99.90;;;;;;5064930;28;21004;-46
2023/08/14 06:55:23;;;;;;;34.40;32.50;;;22.40;99.90;;;;;;5062129;28;20463;-48
2023/08/14 06:57:50;;;;;;;34.67;33.13;;;22.40;99.90;;;;;;5061962;28;20974;-45
2023/08/14 07:00:18;;;;;;;33.50;32.10;;;22.40;99.90;;;;;;5065002;28;20451;-45
2023/08/14 07:02:47;;;;;;;33.00;31.60;;;22.40;99.90;;;;;;5065226;28;20490;-48
2023/08/14 07:05:14;;;;;;;34.57;32.97;;;22.40;99.90;;;;;;5062419;28;20451;-47
2023/08/14 07:07:41;;;;;;;34.53;33.03;;;22.40;99.90;;;;;;5061766;28;20481;-46
2023/08/14 07:10:10;;;;;;;33.63;32.23;;;22.40;99.90;;;;;;5063444;28;20537;-47
2023/08/14 07:12:37;;;;;;;33.00;31.70;;;22.40;99.90;;;;;;5064975;28;20463;-45
2023/08/14 07:15:08;;;;;;;32.57;31.23;;;22.40;99.90;;;;;;5063649;28;20474;-45
2023/08/14 07:17:35;;;;;;;34.50;32.97;;;22.40;99.90;;;;;;5060860;28;20444;-45
2023/08/14 07:20:04;;;;;;;33.40;32.00;;;22.40;99.90;;;;;;5062490;28;20472;-46
2023/08/14 07:22:31;;;;;;;31.43;30.23;;;22.50;99.90;;;;;;5064940;28;20949;-46
2023/08/14 07:24:59;;;;;;;33.00;31.60;;;22.50;99.90;;;;;;5064461;28;20435;-45
2023/08/14 07:27:27;;;;;;;31.70;30.50;;;22.50;99.90;;;;;;5061387;28;20521;-44
2023/08/14 07:29:54;;;;;;;31.33;29.93;;;22.50;99.90;;;;;;5061291;28;20443;-48
2023/08/14 07:32:21;;;;;;;30.93;29.50;;;22.50;99.90;;;;;;5053167;28;20570;-48
2023/08/14 07:34:49;;;;;;;30.93;29.60;;;22.50;99.90;;;;;;5061348;28;20472;-47
2023/08/14 07:37:16;;;;;;;30.70;29.17;;;22.50;99.90;;;;;;5063974;28;20478;-45
2023/08/14 07:39:42;;;;;;;30.83;29.63;;;22.50;99.90;;;;;;5064804;28;20939;-46
2023/08/14 07:42:09;;;;;;;30.70;29.40;;;22.50;99.90;;;;;;5062536;28;20483;-45
2023/08/14 07:44:38;;;;;;;31.37;29.97;;;22.50;99.90;;;;;;5061301;28;20471;-46
2023/08/14 07:47:05;;;;;;;35.07;33.67;;;22.60;99.90;;;;;;5062337;28;21022;-50
2023/08/14 07:49:33;;;;;;;31.90;30.50;;;22.60;99.90;;;;;;5064945;28;20482;-45
2023/08/14 07:51:59;;;;;;;34.77;33.37;;;22.60;99.90;;;;;;5064049;28;20524;-45
2023/08/14 07:54:26;;;;;;;32.57;31.17;;;22.60;99.90;;;;;;5061523;28;20966;-44
2023/08/14 07:56:54;;;;;;;34.70;33.00;;;22.60;99.90;;;;;;5061290;28;20468;-45
2023/08/14 07:59:21;;;;;;;33.07;31.57;;;22.60;99.90;;;;;;5052798;28;20437;-45
2023/08/14 08:01:49;;;;;;;31.30;30.10;;;22.60;99.90;;;;;;5060874;28;20463;-45
2023/08/14 08:04:16;;;;;;;32.77;31.27;;;22.60;99.90;;;;;;5064083;28;20445;-46
2023/08/14 08:06:43;;;;;;;34.33;32.83;;;22.60;99.90;;;;;;5064836;28;20518;-46
2023/08/14 08:09:10;;;;;;;32.83;31.53;;;22.60;99.90;;;;;;5064652;28;20490;-45
2023/08/14 08:11:37;;;;;;;35.73;34.03;;;22.60;99.90;;;;;;5064293;28;20957;-45
2023/08/14 08:14:05;;;;;;;34.10;32.30;;;22.70;99.90;;;;;;5063425;28;20459;-46
2023/08/14 08:16:34;;;;;;;33.10;31.80;;;22.70;99.90;;;;;;5060968;28;20449;-45
2023/08/14 08:19:03;;;;;;;32.20;30.90;;;22.70;99.90;;;;;;5061328;28;20555;-45
2023/08/14 08:21:30;;;;;;;32.67;31.27;;;22.70;99.90;;;;;;5063894;28;21001;-45
2023/08/14 08:23:57;;;;;;;32.10;30.90;;;22.70;99.90;;;;;;5063840;28;20471;-46
2023/08/14 08:26:24;;;;;;;33.63;32.23;;;22.70;99.90;;;;;;5060616;28;20567;-45
2023/08/14 08:28:51;;;;;;;31.97;30.60;;;22.70;99.90;;;;;;5059542;28;20479;-45
2023/08/14 08:31:18;;;;;;;33.50;32.20;;;22.70;99.90;;;;;;5063098;28;20491;-46
2023/08/14 08:33:44;;;;;;;33.83;32.43;;;22.70;99.90;;;;;;5063982;28;20471;-45
2023/08/14 08:36:13;;;;;;;34.03;32.53;;;22.70;99.90;;;;;;5061978;28;20934;-45
2023/08/14 08:38:40;;;;;;;32.67;31.17;;;22.80;99.90;;;;;;5060323;28;20452;-45
2023/08/14 08:41:07;;;;;;;34.50;33.00;;;22.80;99.90;;;;;;5068572;28;20524;-45
2023/08/14 08:43:35;;;;;;;35.00;33.60;;;22.80;99.90;;;;;;5060297;28;20826;-45
2023/08/14 08:46:05;;;;;;;32.93;31.60;;;22.80;99.90;;;;;;5060599;28;20515;-44
2023/08/14 08:48:34;;;;;;;34.07;32.77;;;22.80;99.90;;;;;;5063924;28;20474;-44
2023/08/14 08:51:01;;;;;;;35.50;34.00;;;22.80;99.90;;;;;;5063093;28;20467;-44
2023/08/14 08:53:30;;;;;;;33.80;32.50;;;22.80;99.90;;;;;;5059902;28;20479;-44
2023/08/14 08:55:57;;;;;;;33.77;32.40;;;22.80;99.90;;;;;;5059894;28;20476;-46
2023/08/14 08:58:26;;;;;;;34.13;32.60;;;22.80;99.90;;;;;;5055594;28;20471;-46
2023/08/14 09:00:55;;;;;;;35.63;34.13;;;22.80;99.90;;;;;;5063557;28;20499;-45
2023/08/14 09:03:23;;;;;;;37.00;35.37;;;22.90;99.90;;;;;;5059833;28;20498;-44
2023/08/14 09:05:51;;;;;;;34.43;33.10;;;22.90;99.90;;;;;;5059850;28;20491;-44
2023/08/14 09:08:18;;;;;;;33.87;32.57;;;22.90;99.90;;;;;;5059781;28;20839;-45
2023/08/14 09:10:47;;;;;;;34.43;33.13;;;22.90;99.90;;;;;;5060077;28;20499;-44
2023/08/14 09:13:14;;;;;;;35.03;33.63;;;22.90;99.90;;;;;;5061546;28;20944;-44
2023/08/14 09:15:42;;;;;;;35.23;33.57;;;22.90;99.90;;;;;;5063254;28;20471;-45
2023/08/14 09:18:10;;;;;;;36.17;34.77;;;22.90;99.90;;;;;;5061829;28;20474;-45
2023/08/14 09:20:37;;;;;;;34.87;33.00;;;22.90;99.90;;;;;;5059620;28;20544;-45
2023/08/14 09:23:04;;;;;;;36.70;35.30;;;22.90;99.90;;;;;;5060217;28;20483;-45
2023/08/14 09:25:32;;;;;;;33.60;32.30;;;22.90;99.90;;;;;;5063083;28;20474;-45
2023/08/14 09:28:00;;;;;;;34.17;32.77;;;22.90;99.90;;;;;;5062927;28;20517;-45
2023/08/14 09:30:27;;;;;;;35.00;33.67;;;22.90;99.90;;;;;;5063104;28;20448;-44
2023/08/14 09:32:55;;;;;;;35.60;33.90;;;22.90;99.90;;;;;;5063285;28;20443;-45
2023/08/14 09:35:22;;;;;;;35.27;33.77;;;23.00;99.90;;;;;;5060050;28;20441;-45
2023/08/14 09:37:49;;;;;;;35.80;34.40;;;23.00;99.90;;;;;;5059425;28;20466;-44
2023/08/14 09:40:18;;;;;;;35.13;33.73;;;23.00;99.90;;;;;;5064294;28;20464;-45
2023/08/14 09:42:46;;;;;;;35.53;34.13;;;23.00;99.90;;;;;;5067121;28;20435;-44
2023/08/14 09:45:15;;;;;;;35.53;34.00;;;23.00;99.90;;;;;;5065136;28;20946;-45
2023/08/14 09:47:43;;;;;;;33.60;32.30;;;23.00;99.90;;;;;;5063637;28;20512;-45
2023/08/14 09:50:10;;;;;;;34.10;32.70;;;23.10;99.90;;;;;;5064609;28;21015;-45
2023/08/14 09:52:37;;;;;;;36.60;35.13;;;23.10;99.90;;;;;;5066857;28;20953;-45
2023/08/14 09:55:05;;;;;;;35.73;34.33;;;23.10;99.90;;;;;;5066182;28;20474;-45
2023/08/14 09:57:33;;;;;;;35.90;34.60;;;23.10;99.90;;;;;;5063505;28;20471;-45
2023/08/14 10:00:00;;;;;;;38.37;36.70;;;23.10;99.90;;;;;;5063156;28;20468;-46
2023/08/14 10:02:30;;;;;;;37.97;36.27;;;23.00;99.90;;;;;;5055149;28;20556;-45
2023/08/14 10:04:59;;;;;;;38.23;36.70;;;23.10;99.90;;;;;;5063521;28;20861;-46
2023/08/14 10:07:27;;;;;;;35.73;34.33;;;23.10;99.90;;;;;;5066462;28;20582;-46
2023/08/14 10:09:57;;;;;;;36.43;34.73;;;23.10;99.90;;;;;;5066372;28;20950;-45
2023/08/14 10:12:28;;;;;;;36.10;34.70;;;23.10;99.90;;;;;;5063053;28;20464;-45
2023/08/14 10:15:01;;;;;;;37.63;36.23;;;23.10;99.90;;;;;;5063469;28;20468;-45
2023/08/14 10:17:31;;;;;;;36.20;34.70;;;23.10;99.90;;;;;;5055013;28;20527;-46
2023/08/14 10:20:01;;;;;;;35.67;34.07;;;23.20;99.90;;;;;;5062991;28;20463;-46
2023/08/14 10:22:29;;;;;;;34.80;33.50;;;23.20;99.90;;;;;;5054763;28;20506;-46
2023/08/14 10:24:56;;;;;;;33.60;32.30;;;23.20;99.90;;;;;;5062905;28;20471;-45
2023/08/14 10:27:23;;;;;;;36.07;34.70;;;23.20;99.90;;;;;;5065575;28;20471;-46
2023/08/14 10:29:50;;;;;;;38.73;37.23;;;23.20;99.90;;;;;;5068064;28;20876;-46
2023/08/14 10:32:18;;;;;;;35.07;33.77;;;23.20;99.90;;;;;;5064732;28;20472;-45
2023/08/14 10:34:48;;;;;;;38.33;36.80;;;23.20;99.90;;;;;;5066177;28;20474;-47
2023/08/14 10:37:29;;;;;;;37.33;35.90;;;23.20;99.90;;;;;;5064122;28;20443;-44
2023/08/14 10:40:14;;;;;;;38.33;36.83;;;23.20;99.90;;;;;;5062655;28;20464;-45
2023/08/14 10:42:44;;;;;;;41.20;39.50;;;23.20;99.90;;;;;;5056332;28;20459;-44
2023/08/14 10:45:12;;;;;;;38.37;36.97;;;23.20;99.90;;;;;;5063604;28;20851;-44
2023/08/14 10:47:39;;;;;;;36.60;34.70;;;23.20;99.90;;;;;;5065920;28;20475;-46
2023/08/14 10:50:16;;;;;;;35.93;34.63;;;23.30;99.90;;;;;;5065059;28;20481;-45
2023/08/14 10:52:46;;;;;;;39.30;37.63;;;23.30;99.90;;;;;;5061796;28;20479;-45
2023/08/14 10:55:17;;;;;;;42.67;40.97;;;23.30;99.90;;;;;;5063581;28;20443;-47
2023/08/14 10:57:45;;;;;;;42.67;41.00;;;23.30;99.90;;;;;;5065717;28;20441;-44
2023/08/14 11:00:21;;;;;;;39.70;38.13;;;23.30;99.90;;;;;;5064221;28;20516;-44
2023/08/14 11:02:54;;;;;;;41.87;40.37;;;23.30;99.90;;;;;;5062092;28;20807;-45
2023/08/14 11:05:22;;;;;;;39.00;37.50;;;23.30;99.90;;;;;;5064622;28;20448;-45
2023/08/14 11:07:59;;;;;;;38.03;36.50;;;23.30;99.90;;;;;;5065384;28;20509;-45
2023/08/14 11:10:27;;;;;;;39.37;37.73;;;23.30;99.90;;;;;;5062621;28;20491;-46
2023/08/14 11:12:54;;;;;;;36.90;35.50;;;23.30;99.90;;;;;;5062331;28;20440;-46
2023/08/14 11:15:21;;;;;;;37.80;36.33;;;23.30;99.90;;;;;;5064644;28;20467;-53
2023/08/14 11:17:48;;;;;;;41.27;39.70;;;23.30;99.90;;;;;;5065560;28;20867;-46
2023/08/14 11:20:16;;;;;;;39.50;37.80;;;23.40;99.90;;;;;;5063566;28;20585;-45
2023/08/14 11:22:46;;;;;;;38.60;37.20;;;23.40;99.90;;;;;;5061876;28;20451;-46
2023/08/14 11:25:16;;;;;;;39.37;37.87;;;23.40;99.90;;;;;;5063018;28;20472;-45
2023/08/14 11:27:49;;;;;;;40.70;39.07;;;23.40;99.90;;;;;;5065296;28;20507;-45
2023/08/14 11:30:16;;;;;;;43.10;41.50;;;23.40;99.90;;;;;;5063498;28;20470;-49
2023/08/14 11:32:43;;;;;;;41.17;39.67;;;23.40;99.90;;;;;;5061813;28;20468;-48
2023/08/14 11:35:12;;;;;;;39.57;37.67;;;23.40;99.90;;;;;;5062484;28;20467;-48
2023/08/14 11:37:39;;;;;;;39.30;37.77;;;23.40;99.90;;;;;;5065406;28;20463;-44
2023/08/14 11:40:10;;;;;;;39.67;38.07;;;23.40;99.90;;;;;;5064756;28;20471;-48
2023/08/14 11:42:37;;;;;;;40.57;38.90;;;23.40;99.90;;;;;;5061746;28;20923;-46
2023/08/14 11:45:06;;;;;;;39.67;38.27;;;23.50;99.90;;;;;;5061523;28;20463;-46
2023/08/14 11:47:34;;;;;;;37.83;36.33;;;23.50;99.90;;;;;;5053625;28;20504;-46
2023/08/14 11:50:01;;;;;;;37.47;36.07;;;23.50;99.90;;;;;;5061498;28;20863;-48
2023/08/14 11:52:29;;;;;;;37.20;35.70;;;23.50;99.90;;;;;;5064637;28;20533;-48
2023/08/14 11:54:56;;;;;;;35.57;34.17;;;23.50;99.90;;;;;;5065132;28;20467;-46
2023/08/14 11:57:26;;;;;;;36.50;34.90;;;23.50;99.90;;;;;;5062095;28;20831;-46
2023/08/14 11:59:54;;;;;;;38.60;37.10;;;23.50;99.90;;;;;;5061403;28;20501;-46
2023/08/14 12:02:21;;;;;;;39.87;38.37;;;23.50;99.90;;;;;;5063284;28;20471;-46
2023/08/14 12:04:53;;;;;;;40.23;38.53;;;23.60;99.90;;;;;;5064892;28;20498;-46
2023/08/14 12:07:20;;;;;;;40.57;38.83;;;23.60;99.90;;;;;;5062685;28;20845;-45
2023/08/14 12:09:47;;;;;;;41.27;39.70;;;23.50;99.90;;;;;;5061211;28;20523;-46
2023/08/14 12:12:14;;;;;;;39.37;37.97;;;23.60;99.90;;;;;;5062223;28;20436;-47
2023/08/14 12:14:46;;;;;;;40.07;38.47;;;23.60;99.90;;;;;;5064547;28;20467;-46
2023/08/14 12:17:15;;;;;;;40.73;39.00;;;23.60;99.90;;;;;;5063330;28;20462;-46
2023/08/14 12:19:42;;;;;;;37.67;36.27;;;23.60;99.90;;;;;;5060962;28;20475;-46
2023/08/14 12:22:10;;;;;;;39.80;38.20;;;23.60;99.90;;;;;;5060637;28;20487;-47
2023/08/14 12:24:39;;;;;;;41.33;39.73;;;23.70;99.90;;;;;;5064321;28;20439;-46
2023/08/14 12:27:14;;;;;;;39.77;38.27;;;23.70;99.90;;;;;;5064210;28;20506;-46
2023/08/14 12:29:42;;;;;;;41.27;39.67;;;23.60;99.90;;;;;;5053874;28;20474;-47
2023/08/14 12:32:09;;;;;;;41.97;40.27;;;23.70;99.90;;;;;;5060533;28;20513;-46